sensor_id;sensor_type;location;lat;lon;timestamp;temperature;humidity
41985;DHT22;28319;48.116;10.818;2022-10-16T00:01:08;13.80;99.90
41985;DHT22;28319;48.116;10.818;2022-10-16T00:06:13;13.80;99.90
41985;DHT22;28319;48.116;10.818;2022-10-16T00:11:17;13.80;99.90
41985;DHT22;28319;48.116;10.818;2022-10-16T00:16:20;13.70;99.90
41985;DHT22;28319;48.116;10.818;2022-10-16T00:21:25;13.70;99.90
41985;DHT22;28319;48.116;10.818;2022-10-16T00:26:28;13.80;99.90
41985;DHT22;28319;48.116;10.818;2022-10-16T00:31:32;13.80;99.90
41985;DHT22;28319;48.116;10.818;2022-10-16T00:36:34;13.80;99.90
41985;DHT22;28319;48.116;10.818;2022-10-16T00:41:36;13.90;99.90
41985;DHT22;28319;48.116;10.818;2022-10-16T00:46:41;13.80;99.90
41985;DHT22;28319;48.116;10.818;2022-10-16T00:51:46;13.90;99.90
41985;DHT22;28319;48.116;10.818;2022-10-16T00:56:49;13.80;99.90
41985;DHT22;28319;48.116;10.818;2022-10-16T01:01:54;13.70;99.90
41985;DHT22;28319;48.116;10.818;2022-10-16T01:07:00;13.70;99.90
41985;DHT22;28319;48.116;10.818;2022-10-16T01:12:10;13.60;99.90
41985;DHT22;28319;48.116;10.818;2022-10-16T01:17:18;13.40;99.90
41985;DHT22;28319;48.116;10.818;2022-10-16T01:22:22;13.40;99.90
41985;DHT22;28319;48.116;10.818;2022-10-16T01:27:30;13.30;99.90
41985;DHT22;28319;48.116;10.818;2022-10-16T01:32:37;13.30;99.90
41985;DHT22;28319;48.116;10.818;2022-10-16T01:37:43;13.10;99.90
41985;DHT22;28319;48.116;10.818;2022-10-16T01:42:52;13.20;99.90
41985;DHT22;28319;48.116;10.818;2022-10-16T01:47:57;13.40;99.90
41985;DHT22;28319;48.116;10.818;2022-10-16T01:53:00;13.30;99.90
41985;DHT22;28319;48.116;10.818;2022-10-16T01:58:07;13.30;99.90
41985;DHT22;28319;48.116;10.818;2022-10-16T02:03:11;13.20;99.90
41985;DHT22;28319;48.116;10.818;2022-10-16T02:08:14;13.40;99.90
41985;DHT22;28319;48.116;10.818;2022-10-16T02:13:21;13.30;99.90
41985;DHT22;28319;48.116;10.818;2022-10-16T02:18:24;13.20;99.90
41985;DHT22;28319;48.116;10.818;2022-10-16T02:23:35;13.10;99.90
41985;DHT22;28319;48.116;10.818;2022-10-16T02:28:42;13.00;99.90
41985;DHT22;28319;48.116;10.818;2022-10-16T02:33:46;13.00;99.90
41985;DHT22;28319;48.116;10.818;2022-10-16T02:38:49;13.00;99.90
41985;DHT22;28319;48.116;10.818;2022-10-16T02:43:53;13.00;99.90
41985;DHT22;28319;48.116;10.818;2022-10-16T02:48:55;12.90;99.90
41985;DHT22;28319;48.116;10.818;2022-10-16T02:53:57;13.00;99.90
41985;DHT22;28319;48.116;10.818;2022-10-16T02:59:01;12.90;99.90
41985;DHT22;28319;48.116;10.818;2022-10-16T03:04:03;12.90;99.90
41985;DHT22;28319;48.116;10.818;2022-10-16T03:09:06;13.00;99.90
41985;DHT22;28319;48.116;10.818;2022-10-16T03:14:09;13.10;99.90
41985;DHT22;28319;48.116;10.818;2022-10-16T03:19:12;13.20;99.90
41985;DHT22;28319;48.116;10.818;2022-10-16T03:24:14;13.20;99.90
41985;DHT22;28319;48.116;10.818;2022-10-16T03:29:18;13.30;99.90
41985;DHT22;28319;48.116;10.818;2022-10-16T03:34:20;13.40;99.90
41985;DHT22;28319;48.116;10.818;2022-10-16T03:39:22;13.40;99.90
41985;DHT22;28319;48.116;10.818;2022-10-16T03:44:26;13.50;99.90
41985;DHT22;28319;48.116;10.818;2022-10-16T03:49:27;13.40;99.90
41985;DHT22;28319;48.116;10.818;2022-10-16T03:54:29;13.30;99.90
41985;DHT22;28319;48.116;10.818;2022-10-16T03:59:33;13.30;99.90
41985;DHT22;28319;48.116;10.818;2022-10-16T04:04:35;13.20;99.90
41985;DHT22;28319;48.116;10.818;2022-10-16T04:09:37;13.20;99.90
41985;DHT22;28319;48.116;10.818;2022-10-16T04:14:41;13.30;99.90
41985;DHT22;28319;48.116;10.818;2022-10-16T04:19:43;13.30;99.90
41985;DHT22;28319;48.116;10.818;2022-10-16T04:24:46;13.40;99.90
41985;DHT22;28319;48.116;10.818;2022-10-16T04:29:50;13.50;99.90
41985;DHT22;28319;48.116;10.818;2022-10-16T04:34:52;13.40;99.90
41985;DHT22;28319;48.116;10.818;2022-10-16T04:39:54;13.20;99.90
41985;DHT22;28319;48.116;10.818;2022-10-16T04:44:58;13.10;99.90
41985;DHT22;28319;48.116;10.818;2022-10-16T04:50:00;13.20;99.90
41985;DHT22;28319;48.116;10.818;2022-10-16T04:55:03;13.30;99.90
41985;DHT22;28319;48.116;10.818;2022-10-16T05:00:08;13.30;99.90
41985;DHT22;28319;48.116;10.818;2022-10-16T05:05:10;13.10;99.90
41985;DHT22;28319;48.116;10.818;2022-10-16T05:10:12;13.10;99.90
41985;DHT22;28319;48.116;10.818;2022-10-16T05:15:16;13.20;99.90
41985;DHT22;28319;48.116;10.818;2022-10-16T05:20:19;13.10;99.90
41985;DHT22;28319;48.116;10.818;2022-10-16T05:25:21;13.00;99.90
41985;DHT22;28319;48.116;10.818;2022-10-16T05:30:25;13.00;99.90
41985;DHT22;28319;48.116;10.818;2022-10-16T05:35:27;13.00;99.90
41985;DHT22;28319;48.116;10.818;2022-10-16T05:40:29;13.00;99.90
41985;DHT22;28319;48.116;10.818;2022-10-16T05:45:33;13.00;99.90
41985;DHT22;28319;48.116;10.818;2022-10-16T05:50:35;13.10;99.90
41985;DHT22;28319;48.116;10.818;2022-10-16T05:55:37;13.20;99.90
41985;DHT22;28319;48.116;10.818;2022-10-16T06:00:40;13.10;99.90
41985;DHT22;28319;48.116;10.818;2022-10-16T06:05:43;13.00;99.90
41985;DHT22;28319;48.116;10.818;2022-10-16T06:10:46;13.00;99.90
41985;DHT22;28319;48.116;10.818;2022-10-16T06:15:50;13.00;99.90
41985;DHT22;28319;48.116;10.818;2022-10-16T06:20:52;13.00;99.90
41985;DHT22;28319;48.116;10.818;2022-10-16T06:25:56;12.90;99.90
41985;DHT22;28319;48.116;10.818;2022-10-16T06:31:08;13.00;99.90
41985;DHT22;28319;48.116;10.818;2022-10-16T06:36:12;13.00;99.90
41985;DHT22;28319;48.116;10.818;2022-10-16T06:41:16;13.20;99.90
41985;DHT22;28319;48.116;10.818;2022-10-16T06:46:22;13.10;99.90
41985;DHT22;28319;48.116;10.818;2022-10-16T06:51:24;13.10;99.90
41985;DHT22;28319;48.116;10.818;2022-10-16T06:56:27;13.10;99.90
41985;DHT22;28319;48.116;10.818;2022-10-16T07:01:32;13.10;99.90
41985;DHT22;28319;48.116;10.818;2022-10-16T07:06:34;13.10;99.90
41985;DHT22;28319;48.116;10.818;2022-10-16T07:11:38;13.10;99.90
41985;DHT22;28319;48.116;10.818;2022-10-16T07:16:42;13.20;99.90
41985;DHT22;28319;48.116;10.818;2022-10-16T07:21:44;13.30;99.90
41985;DHT22;28319;48.116;10.818;2022-10-16T07:26:47;13.50;99.90
41985;DHT22;28319;48.116;10.818;2022-10-16T07:31:51;13.60;99.90
41985;DHT22;28319;48.116;10.818;2022-10-16T07:36:53;13.70;99.90
41985;DHT22;28319;48.116;10.818;2022-10-16T07:41:55;13.90;99.90
41985;DHT22;28319;48.116;10.818;2022-10-16T07:46:59;14.10;99.90
41985;DHT22;28319;48.116;10.818;2022-10-16T07:52:01;14.20;99.90
41985;DHT22;28319;48.116;10.818;2022-10-16T07:57:03;14.50;99.90
41985;DHT22;28319;48.116;10.818;2022-10-16T08:02:07;14.60;99.90
41985;DHT22;28319;48.116;10.818;2022-10-16T08:07:09;14.80;99.90
41985;DHT22;28319;48.116;10.818;2022-10-16T08:12:11;15.00;99.90
41985;DHT22;28319;48.116;10.818;2022-10-16T08:17:15;15.30;99.90
41985;DHT22;28319;48.116;10.818;2022-10-16T08:22:17;15.60;99.90
41985;DHT22;28319;48.116;10.818;2022-10-16T08:27:19;15.90;99.90
41985;DHT22;28319;48.116;10.818;2022-10-16T08:32:23;16.00;99.90
41985;DHT22;28319;48.116;10.818;2022-10-16T08:37:29;16.20;99.90
41985;DHT22;28319;48.116;10.818;2022-10-16T08:42:43;16.60;99.90
41985;DHT22;28319;48.116;10.818;2022-10-16T08:47:54;16.70;99.90
41985;DHT22;28319;48.116;10.818;2022-10-16T08:53:00;16.90;99.90
41985;DHT22;28319;48.116;10.818;2022-10-16T08:58:02;17.10;99.90
41985;DHT22;28319;48.116;10.818;2022-10-16T09:03:17;17.30;99.90
41985;DHT22;28319;48.116;10.818;2022-10-16T09:08:30;17.70;99.90
41985;DHT22;28319;48.116;10.818;2022-10-16T09:13:43;18.00;99.90
41985;DHT22;28319;48.116;10.818;2022-10-16T09:18:54;18.40;99.90
41985;DHT22;28319;48.116;10.818;2022-10-16T09:24:00;18.70;99.90
41985;DHT22;28319;48.116;10.818;2022-10-16T09:29:10;19.10;99.90
41985;DHT22;28319;48.116;10.818;2022-10-16T09:34:21;19.20;99.90
41985;DHT22;28319;48.116;10.818;2022-10-16T09:39:27;19.30;99.90
41985;DHT22;28319;48.116;10.818;2022-10-16T09:44:30;19.20;99.90
41985;DHT22;28319;48.116;10.818;2022-10-16T09:49:35;19.20;99.90
41985;DHT22;28319;48.116;10.818;2022-10-16T09:54:37;19.30;99.90
41985;DHT22;28319;48.116;10.818;2022-10-16T09:59:52;19.30;99.90
41985;DHT22;28319;48.116;10.818;2022-10-16T10:04:56;19.40;99.90
41985;DHT22;28319;48.116;10.818;2022-10-16T10:09:58;19.50;99.90
41985;DHT22;28319;48.116;10.818;2022-10-16T10:15:05;19.60;99.90
41985;DHT22;28319;48.116;10.818;2022-10-16T10:20:22;20.00;99.90
41985;DHT22;28319;48.116;10.818;2022-10-16T10:25:42;20.40;99.90
41985;DHT22;28319;48.116;10.818;2022-10-16T10:30:54;20.80;99.90
41985;DHT22;28319;48.116;10.818;2022-10-16T10:36:08;21.30;99.90
41985;DHT22;28319;48.116;10.818;2022-10-16T10:41:33;21.10;99.90
41985;DHT22;28319;48.116;10.818;2022-10-16T10:46:44;21.00;99.90
41985;DHT22;28319;48.116;10.818;2022-10-16T10:51:56;21.00;99.90
41985;DHT22;28319;48.116;10.818;2022-10-16T10:57:02;21.00;99.90
41985;DHT22;28319;48.116;10.818;2022-10-16T11:02:14;21.10;99.90
41985;DHT22;28319;48.116;10.818;2022-10-16T11:07:22;21.20;99.90
41985;DHT22;28319;48.116;10.818;2022-10-16T11:12:29;21.50;99.90
41985;DHT22;28319;48.116;10.818;2022-10-16T11:17:38;22.00;99.90
41985;DHT22;28319;48.116;10.818;2022-10-16T11:22:44;22.00;99.90
41985;DHT22;28319;48.116;10.818;2022-10-16T11:27:51;22.50;99.90
41985;DHT22;28319;48.116;10.818;2022-10-16T11:33:05;22.40;99.90
41985;DHT22;28319;48.116;10.818;2022-10-16T11:38:27;22.50;99.90
41985;DHT22;28319;48.116;10.818;2022-10-16T11:43:36;23.10;99.70
41985;DHT22;28319;48.116;10.818;2022-10-16T11:48:41;23.30;98.70
41985;DHT22;28319;48.116;10.818;2022-10-16T11:53:53;23.50;97.60
41985;DHT22;28319;48.116;10.818;2022-10-16T11:58:59;23.70;97.10
41985;DHT22;28319;48.116;10.818;2022-10-16T12:04:11;23.80;98.90
41985;DHT22;28319;48.116;10.818;2022-10-16T12:09:21;23.90;97.00
41985;DHT22;28319;48.116;10.818;2022-10-16T12:14:42;24.00;96.90
41985;DHT22;28319;48.116;10.818;2022-10-16T12:19:44;24.10;96.90
41985;DHT22;28319;48.116;10.818;2022-10-16T12:24:51;24.10;95.20
41985;DHT22;28319;48.116;10.818;2022-10-16T12:29:56;24.30;95.30
41985;DHT22;28319;48.116;10.818;2022-10-16T12:34:59;24.60;96.90
41985;DHT22;28319;48.116;10.818;2022-10-16T12:40:14;24.50;94.20
41985;DHT22;28319;48.116;10.818;2022-10-16T12:45:28;24.40;93.30
41985;DHT22;28319;48.116;10.818;2022-10-16T12:55:51;24.60;94.30
41985;DHT22;28319;48.116;10.818;2022-10-16T13:00:57;24.60;91.90
41985;DHT22;28319;48.116;10.818;2022-10-16T13:06:08;24.60;91.70
41985;DHT22;28319;48.116;10.818;2022-10-16T13:11:22;24.70;93.40
41985;DHT22;28319;48.116;10.818;2022-10-16T13:16:33;24.70;94.30
41985;DHT22;28319;48.116;10.818;2022-10-16T13:21:46;24.40;91.80
41985;DHT22;28319;48.116;10.818;2022-10-16T13:26:56;24.40;92.60
41985;DHT22;28319;48.116;10.818;2022-10-16T13:32:01;24.40;91.40
41985;DHT22;28319;48.116;10.818;2022-10-16T13:37:17;24.20;91.20
41985;DHT22;28319;48.116;10.818;2022-10-16T13:42:24;24.10;90.60
41985;DHT22;28319;48.116;10.818;2022-10-16T13:47:29;24.00;93.40
41985;DHT22;28319;48.116;10.818;2022-10-16T13:52:31;24.30;90.80
41985;DHT22;28319;48.116;10.818;2022-10-16T13:57:35;24.10;90.80
41985;DHT22;28319;48.116;10.818;2022-10-16T14:02:39;24.10;90.80
41985;DHT22;28319;48.116;10.818;2022-10-16T14:07:42;23.90;90.40
41985;DHT22;28319;48.116;10.818;2022-10-16T14:12:54;23.60;90.90
41985;DHT22;28319;48.116;10.818;2022-10-16T14:17:57;23.70;91.00
41985;DHT22;28319;48.116;10.818;2022-10-16T14:23:01;23.60;90.50
41985;DHT22;28319;48.116;10.818;2022-10-16T14:28:15;23.30;91.20
41985;DHT22;28319;48.116;10.818;2022-10-16T14:33:23;23.20;90.60
41985;DHT22;28319;48.116;10.818;2022-10-16T14:38:25;23.00;90.80
41985;DHT22;28319;48.116;10.818;2022-10-16T14:43:32;23.00;90.40
41985;DHT22;28319;48.116;10.818;2022-10-16T14:48:35;22.90;90.40
41985;DHT22;28319;48.116;10.818;2022-10-16T14:53:37;22.80;90.30
41985;DHT22;28319;48.116;10.818;2022-10-16T14:58:41;22.70;90.70
41985;DHT22;28319;48.116;10.818;2022-10-16T15:03:44;22.60;91.30
41985;DHT22;28319;48.116;10.818;2022-10-16T15:08:47;22.60;92.00
41985;DHT22;28319;48.116;10.818;2022-10-16T15:13:50;22.40;92.10
41985;DHT22;28319;48.116;10.818;2022-10-16T15:18:53;22.30;92.40
41985;DHT22;28319;48.116;10.818;2022-10-16T15:23:56;22.30;92.50
41985;DHT22;28319;48.116;10.818;2022-10-16T15:29:00;22.20;93.50
41985;DHT22;28319;48.116;10.818;2022-10-16T15:34:01;22.20;93.30
41985;DHT22;28319;48.116;10.818;2022-10-16T15:39:05;22.20;95.00
41985;DHT22;28319;48.116;10.818;2022-10-16T15:44:09;22.10;94.40
41985;DHT22;28319;48.116;10.818;2022-10-16T15:49:12;22.10;97.10
41985;DHT22;28319;48.116;10.818;2022-10-16T15:54:14;22.30;97.30
41985;DHT22;28319;48.116;10.818;2022-10-16T15:59:17;22.40;98.70
41985;DHT22;28319;48.116;10.818;2022-10-16T16:04:20;22.40;99.00
41985;DHT22;28319;48.116;10.818;2022-10-16T16:09:22;22.30;99.40
41985;DHT22;28319;48.116;10.818;2022-10-16T16:14:26;22.20;99.90
41985;DHT22;28319;48.116;10.818;2022-10-16T16:19:28;21.90;99.90
41985;DHT22;28319;48.116;10.818;2022-10-16T16:24:32;21.60;99.90
41985;DHT22;28319;48.116;10.818;2022-10-16T16:29:36;21.50;99.90
41985;DHT22;28319;48.116;10.818;2022-10-16T16:34:38;21.50;99.90
41985;DHT22;28319;48.116;10.818;2022-10-16T16:39:41;21.30;99.90
41985;DHT22;28319;48.116;10.818;2022-10-16T16:44:45;21.30;99.90
41985;DHT22;28319;48.116;10.818;2022-10-16T16:49:47;21.10;99.90
41985;DHT22;28319;48.116;10.818;2022-10-16T16:54:49;20.90;99.90
41985;DHT22;28319;48.116;10.818;2022-10-16T16:59:53;20.70;99.90
41985;DHT22;28319;48.116;10.818;2022-10-16T17:04:56;20.40;99.90
41985;DHT22;28319;48.116;10.818;2022-10-16T17:09:58;20.30;99.90
41985;DHT22;28319;48.116;10.818;2022-10-16T17:15:02;20.20;99.90
41985;DHT22;28319;48.116;10.818;2022-10-16T17:20:05;20.00;99.90
41985;DHT22;28319;48.116;10.818;2022-10-16T17:25:09;19.80;99.90
41985;DHT22;28319;48.116;10.818;2022-10-16T17:30:13;19.70;99.90
41985;DHT22;28319;48.116;10.818;2022-10-16T17:35:15;19.60;99.90
41985;DHT22;28319;48.116;10.818;2022-10-16T17:40:18;19.50;99.90
41985;DHT22;28319;48.116;10.818;2022-10-16T17:45:22;19.30;99.90
41985;DHT22;28319;48.116;10.818;2022-10-16T17:50:24;19.30;99.90
41985;DHT22;28319;48.116;10.818;2022-10-16T17:55:26;19.10;99.90
41985;DHT22;28319;48.116;10.818;2022-10-16T18:00:30;19.20;99.90
41985;DHT22;28319;48.116;10.818;2022-10-16T18:05:32;19.20;99.90
41985;DHT22;28319;48.116;10.818;2022-10-16T18:10:44;19.10;99.90
41985;DHT22;28319;48.116;10.818;2022-10-16T18:15:59;18.90;99.90
41985;DHT22;28319;48.116;10.818;2022-10-16T18:21:03;18.70;99.90
41985;DHT22;28319;48.116;10.818;2022-10-16T18:26:06;18.50;99.90
41985;DHT22;28319;48.116;10.818;2022-10-16T18:31:13;18.50;99.90
41985;DHT22;28319;48.116;10.818;2022-10-16T18:36:18;18.50;99.90
41985;DHT22;28319;48.116;10.818;2022-10-16T18:41:21;18.40;99.90
41985;DHT22;28319;48.116;10.818;2022-10-16T18:46:26;18.40;99.90
41985;DHT22;28319;48.116;10.818;2022-10-16T18:51:31;18.30;99.90
41985;DHT22;28319;48.116;10.818;2022-10-16T18:56:33;18.30;99.90
41985;DHT22;28319;48.116;10.818;2022-10-16T19:01:37;18.20;99.90
41985;DHT22;28319;48.116;10.818;2022-10-16T19:06:41;18.10;99.90
41985;DHT22;28319;48.116;10.818;2022-10-16T19:11:44;18.00;99.90
41985;DHT22;28319;48.116;10.818;2022-10-16T19:16:48;18.00;99.90
41985;DHT22;28319;48.116;10.818;2022-10-16T19:21:51;17.90;99.90
41985;DHT22;28319;48.116;10.818;2022-10-16T19:27:00;17.80;99.90
41985;DHT22;28319;48.116;10.818;2022-10-16T19:32:06;17.60;99.90
41985;DHT22;28319;48.116;10.818;2022-10-16T19:37:08;17.60;99.90
41985;DHT22;28319;48.116;10.818;2022-10-16T19:42:10;17.50;99.90
41985;DHT22;28319;48.116;10.818;2022-10-16T19:47:15;17.40;99.90
41985;DHT22;28319;48.116;10.818;2022-10-16T19:52:18;17.30;99.90
41985;DHT22;28319;48.116;10.818;2022-10-16T19:57:21;17.20;99.90
41985;DHT22;28319;48.116;10.818;2022-10-16T20:02:25;17.20;99.90
41985;DHT22;28319;48.116;10.818;2022-10-16T20:07:28;17.00;99.90
41985;DHT22;28319;48.116;10.818;2022-10-16T20:12:30;17.00;99.90
41985;DHT22;28319;48.116;10.818;2022-10-16T20:17:33;16.80;99.90
41985;DHT22;28319;48.116;10.818;2022-10-16T20:22:35;16.90;99.90
41985;DHT22;28319;48.116;10.818;2022-10-16T20:27:38;16.90;99.90
41985;DHT22;28319;48.116;10.818;2022-10-16T20:32:41;16.80;99.90
41985;DHT22;28319;48.116;10.818;2022-10-16T20:37:45;16.80;99.90
41985;DHT22;28319;48.116;10.818;2022-10-16T20:42:48;16.60;99.90
41985;DHT22;28319;48.116;10.818;2022-10-16T20:47:51;16.50;99.90
41985;DHT22;28319;48.116;10.818;2022-10-16T20:52:53;16.50;99.90
41985;DHT22;28319;48.116;10.818;2022-10-16T20:57:56;16.50;99.90
41985;DHT22;28319;48.116;10.818;2022-10-16T21:02:59;16.30;99.90
41985;DHT22;28319;48.116;10.818;2022-10-16T21:08:01;16.20;99.90
41985;DHT22;28319;48.116;10.818;2022-10-16T21:13:03;16.00;99.90
41985;DHT22;28319;48.116;10.818;2022-10-16T21:18:07;16.00;99.90
41985;DHT22;28319;48.116;10.818;2022-10-16T21:23:10;16.00;99.90
41985;DHT22;28319;48.116;10.818;2022-10-16T21:28:12;15.70;99.90
41985;DHT22;28319;48.116;10.818;2022-10-16T21:33:16;15.70;99.90
41985;DHT22;28319;48.116;10.818;2022-10-16T21:38:19;15.60;99.90
41985;DHT22;28319;48.116;10.818;2022-10-16T21:43:21;15.60;99.90
41985;DHT22;28319;48.116;10.818;2022-10-16T21:48:24;15.50;99.90
41985;DHT22;28319;48.116;10.818;2022-10-16T21:53:27;15.50;99.90
41985;DHT22;28319;48.116;10.818;2022-10-16T21:58:30;15.50;99.90
41985;DHT22;28319;48.116;10.818;2022-10-16T22:03:34;15.60;99.90
41985;DHT22;28319;48.116;10.818;2022-10-16T22:08:37;15.70;99.90
41985;DHT22;28319;48.116;10.818;2022-10-16T22:13:40;15.60;99.90
41985;DHT22;28319;48.116;10.818;2022-10-16T22:18:44;15.50;99.90
41985;DHT22;28319;48.116;10.818;2022-10-16T22:23:46;15.50;99.90
41985;DHT22;28319;48.116;10.818;2022-10-16T22:28:49;15.40;99.90
41985;DHT22;28319;48.116;10.818;2022-10-16T22:33:56;15.40;99.90
41985;DHT22;28319;48.116;10.818;2022-10-16T22:38:59;15.30;99.90
41985;DHT22;28319;48.116;10.818;2022-10-16T22:44:01;15.20;99.90
41985;DHT22;28319;48.116;10.818;2022-10-16T22:49:05;15.00;99.90
41985;DHT22;28319;48.116;10.818;2022-10-16T22:54:07;14.90;99.90
41985;DHT22;28319;48.116;10.818;2022-10-16T22:59:10;15.00;99.90
41985;DHT22;28319;48.116;10.818;2022-10-16T23:04:14;15.00;99.90
41985;DHT22;28319;48.116;10.818;2022-10-16T23:09:16;14.90;99.90
41985;DHT22;28319;48.116;10.818;2022-10-16T23:14:19;14.90;99.90
41985;DHT22;28319;48.116;10.818;2022-10-16T23:19:23;14.80;99.90
41985;DHT22;28319;48.116;10.818;2022-10-16T23:24:25;14.70;99.90
41985;DHT22;28319;48.116;10.818;2022-10-16T23:29:28;14.60;99.90
41985;DHT22;28319;48.116;10.818;2022-10-16T23:34:31;14.50;99.90
41985;DHT22;28319;48.116;10.818;2022-10-16T23:39:33;14.40;99.90
41985;DHT22;28319;48.116;10.818;2022-10-16T23:44:35;14.40;99.90
41985;DHT22;28319;48.116;10.818;2022-10-16T23:49:39;14.30;99.90
41985;DHT22;28319;48.116;10.818;2022-10-16T23:54:41;14.10;99.90
41985;DHT22;28319;48.116;10.818;2022-10-16T23:59:43;14.10;99.90
